METAR / TAF

Die METAR- und TAF-Liste ist aus technischen Gründen (Verfügbarkeit, Update-Zyklen) nicht für ein Meteo-Briefing gedacht. Benutzen Sie stattdessen skybriefing der Skyguide  oder das TAMSI (MeteoSchweiz-eigene Meteo Selfbriefing-Plattform für Firmen aus der Aviatik; Anfragen über das

Kontaktformular

METAR Schweiz

METAR     LSZH 271650Z 32004KT 9999 FEW050TCU SCT260 26/14 Q1013
               NOSIG=
METAR     LSZH 271720Z 35004KT 9999 FEW050CB 25/13 Q1013 TEMPO TS=
METAR     LSGG 271650Z 23008KT 9999 FEW045 SCT120 27/09 Q1013 NOSIG=
METAR     LSGG 271720Z 25006KT 9999 FEW045 SCT120 26/09 Q1013 NOSIG=
METAR     LFSB 271700Z 34006KT 9999 FEW050CB BKN250 26/14 Q1013
               NOSIG=
METAR     LSZB 271650Z 30005KT 9999 FEW060TCU 27/14 Q1013 NOSIG=
METAR     LSZB 271720Z 28003KT 250V320 9999 FEW080 SCT180 27/14
               Q1013 NOSIG=
METAR     LSZA 271650Z VRB03KT 9999 FEW070 27/14 Q1015 NOSIG=
METAR     LSZA 271720Z 25003KT 210V290 9999 FEW070 26/13 Q1015
               NOSIG=
METAR     LSZG 271650Z 24005KT 9999 FEW052 25/13 Q1013 NOSIG=
METAR     LSZG 271720Z 23004KT 9999 FEW052 25/14 Q1013 NOSIG=
METAR     LSZR 271650Z 27003KT CAVOK 25/12 Q1013 NOSIG RMK M=
METAR     LSZR 271720Z 33004KT CAVOK 24/11 Q1013 NOSIG RMK N=
METAR     LSGS 271650Z 28006KT 240V340 9999 BKN100 26/11 Q1013=
METAR     LSGS 271720Z NIL=
METAR     LSGC 271650Z 34005KT 230V050 9999 SCT046 21/12 Q1016=
METAR     LSGC 271720Z 35003KT 270V040 9999 SCT046 20/11 Q1016=
METAR     LSZC 271650Z AUTO 25011KT 9999 TSRA FEW080 OVC100
               SCT///CB 19/17 Q1014=
METAR     LSZC 271720Z AUTO VRB02KT 9999 TS FEW090 SCT110 SCT///CB
               18/17 Q1014 RETSRA=
METAR     LSZL 271650Z AUTO 23003KT 9999NDV NCD 25/15 Q1015 RMK=
METAR     LSZL 271720Z NIL=
METAR     LSZS 271650Z 24014KT 9999 FEW050 SCT180 15/08 Q1020=
METAR     LSZS 271720Z AUTO 24010KT 9999 FEW060 14/08 Q1020=
METAR     LSMA 271650Z AUTO 20004KT 100V270 4400NDV +SHRA FEW020
               BKN038 OVC072 19/18 Q1014 RMK=
METAR     LSMA NIL=
METAR     LSMD 271650Z AUTO VRB01KT 9999NDV FEW088 27/12 Q1013 RMK=
METAR     LSMD NIL=
METAR     LSME NIL=
METAR     LSME NIL=
METAR     LSMM 271650Z AUTO 03010KT 360V070 9999NDV -SHRA FEW040
               SCT074 23/14 Q1014 RMK=
METAR     LSMM NIL=
METAR     LSMP 271650Z AUTO 30003KT 260V350 9999NDV NCD 26/14 Q1013
               RMK=
METAR     LSMP NIL=
METAR     LSMS 271650Z 28006KT 240V340 9999 BKN100 26/11 Q1013=
METAR     LSMS NIL=
Aktualisiert am Freitag, 27. Mai 2016, 19:43 Uhr

TAF Schweiz

TAF     LSZH 271425Z 2715/2821 VRB03KT CAVOK TX26/2715Z TN13/2804Z
             TX24/2814Z BECMG 2715/2717 9999 FEW050TCU TEMPO
             2804/2809 SHRA SCT020 BKN080 PROB30 TEMPO 2804/2807
             TSRA SCT040CB BKN050=
TAF     LSGG 271425Z 2715/2821 23010KT 9999 FEW030 SCT070
             TX24/2715Z TN13/2804Z TX23/2815Z PROB40 TEMPO
             2723/2808 SHRA SCT070TCU BKN080 PROB30 2723/2805
             VRB15G25KT 5000 TSRA FEW050CB BKN070 BECMG 2809/2812
             05007KT TEMPO 2813/2815 FEW050TCU PROB40 TEMPO
             2815/2821 VRB15G25KT 4500 TSRA SCT030CB BKN040=
TAF     LFSB 271100Z 2712/2812 29005KT 9999 FEW050 BKN240 TEMPO
             2712/2721 FEW050CB TEMPO 2802/2810 4000 SHRA
             SCT030TCU PROB40 TEMPO 2804/2808 VRB15G25KT 1500 TSRA
             SCT030CB=
TAF     LSGS 271425Z 2715/2724 25010KT 9999 SCT100 TEMPO 2721/2724
             BKN100 BECMG 2717/2721 VRB03KT=
TAF     LSZA 271425Z 2715/2724 20007KT 9999 FEW060 SCT100 BKN240=
TAF     LSZB 271425Z 2715/2724 31006KT 9999 FEW050TCU SCT250 TEMPO
             2715/2721 FEW050CB BKN120 PROB30 TEMPO 2717/2721 5000
             TSRA SCT050CB=
TAF     LSZG 271425Z 2715/2724 24006KT 9999 FEW050TCU SCT250 TEMPO
             2715/2721 FEW050CB BKN120 PROB30 TEMPO 2717/2721 5000
             TSRA SCT050CB=
TAF     LSZL 271125Z 2712/2721 25006KT 9999 FEW060 SCT100 BKN170=
TAF     LSZR 271425Z 2715/2724 28005KT CAVOK BECMG 2715/2717 9999
             FEW060TCU PROB30 TEMPO 2717/2721 25020G30KT TSRA
             FEW050CB BKN080=
TAF     LSGC 271425Z 2715/2724 VRB04KT 9999 SCT040TCU PROB30 TEMPO
             2715/2724 SHRA SCT030TCU PROB30 2718/2724 VRB15G25KT
             3000 TSRA SCT030CB BKN040=
TAF     LSZC 271425Z 2715/2724 07005KT 9999 FEW050 PROB30 TEMPO
             2715/2720 28015G25KT 4000 TSRA SCT040CB BKN060=
TAF     LSZS 271425Z 2715/2724 22013G25KT 9999 FEW050 SCT200
             TX18/2715Z BECMG 2718/2721 VRB03KT=
TAF RRA LSMA 270925Z 2710/2816 06007KT CAVOK BECMG 2710/2713 9999
             FEW060TCU PROB30 TEMPO 2715/2803 27015G25KT 4000 TSRA
             SCT040CB BKN060 PROB40 TEMPO 2723/2806 SHRA=
TAF     LSMD 270925Z 2710/2816 VRB03KT CAVOK BECMG 2710/2713 9999
             FEW060TCU TEMPO 2803/2809 SHRA PROB30 TEMPO 2804/2807
             TSRA SCT040CB=
TAF     LSME 270925Z 2710/2816 VRB03KT CAVOK BECMG 2710/2713 9999
             FEW060TCU PROB30 TEMPO 2715/2803 27015G25KT 4000 TSRA
             SCT040CB BKN060 PROB40 TEMPO 2723/2806 SHRA=
TAF     LSMM 270925Z 2710/2816 26007KT 9999 FEW130 BECMG 2710/2713
             FEW060TCU PROB40 TEMPO 2718/2801 SHRA PROB30 TEMPO
             2718/2724 TSRA PROB40 TEMPO 2814/2816 SHRA=
TAF     LSMP 270925Z 2710/2816 VRB03KT CAVOK TEMPO 2711/2723
             24010KT BECMG 2722/2801 SCT060 PROB40 TEMPO 2800/2805
             24010KT 8000 SHRA FEW050TCU BKN080 PROB30 2723/2805
             VRB15G25KT 5000 TSRA FEW050CB BKN070 BECMG 2809/2812
             02007KT TEMPO 2814/2816 FEW050CB=
Aktualisiert am Freitag, 27. Mai 2016, 18:02 Uhr